createdAt,value
2019-06-08T00:01:01.408Z,100621.78
2019-06-08T00:03:31.961Z,100594.19
2019-06-08T00:06:01.624Z,100623.20
2019-06-08T00:08:31.040Z,100614.69
2019-06-08T00:11:00.695Z,100619.62
2019-06-08T00:13:30.465Z,100614.53
2019-06-08T00:16:00.224Z,100621.86
2019-06-08T00:18:29.696Z,100614.05
2019-06-08T00:21:00.115Z,100617.56
2019-06-08T00:23:29.520Z,100622.43
2019-06-08T00:25:59.533Z,100538.57
2019-06-08T00:28:29.050Z,100613.68
2019-06-08T00:31:00.068Z,100615.32
2019-06-08T00:33:29.548Z,100623.97
2019-06-08T00:36:02.030Z,100624.38
2019-06-08T00:38:31.525Z,100614.53
2019-06-08T00:41:01.200Z,100648.11
2019-06-08T00:43:30.749Z,100610.23
2019-06-08T00:46:01.131Z,100636.48
2019-06-08T00:48:30.674Z,100636.94
2019-06-08T00:51:00.782Z,100635.92
2019-06-08T00:53:30.430Z,100649.45
2019-06-08T00:55:59.941Z,100619.94
2019-06-08T00:58:30.870Z,100632.97
2019-06-08T01:01:00.387Z,100650.28
2019-06-08T01:03:30.074Z,100659.55
2019-06-08T01:05:59.636Z,100667.52
2019-06-08T01:08:29.375Z,100656.99
2019-06-08T01:10:58.856Z,100662.98
2019-06-08T01:13:28.995Z,100695.64
2019-06-08T01:15:58.859Z,100686.45
2019-06-08T01:18:29.370Z,100688.80
2019-06-08T01:20:58.882Z,100659.62
2019-06-08T01:23:28.581Z,100663.28
2019-06-08T01:25:59.510Z,100698.56
2019-06-08T01:28:30.200Z,100676.42
2019-06-08T01:31:01.059Z,100697.61
2019-06-08T01:33:30.888Z,100698.30
2019-06-08T01:36:00.293Z,100680.20
2019-06-08T01:38:29.687Z,100700.39
2019-06-08T01:41:00.355Z,100708.17
2019-06-08T01:43:29.727Z,100716.41
2019-06-08T01:46:03.183Z,100717.97
2019-06-08T01:48:32.779Z,100728.72
2019-06-08T01:51:02.443Z,100735.52
2019-06-08T01:53:33.956Z,100726.70
2019-06-08T01:56:03.351Z,100721.87
2019-06-08T01:58:33.505Z,100746.55
2019-06-08T02:01:03.406Z,100740.81
2019-06-08T02:03:34.682Z,100746.97
2019-06-08T02:06:04.736Z,100764.00
2019-06-08T02:08:34.746Z,100747.77
2019-06-08T02:11:04.559Z,100747.19
2019-06-08T02:13:35.282Z,100760.69
2019-06-08T02:16:04.819Z,100717.98
2019-06-08T02:18:46.810Z,100764.27
2019-06-08T02:21:07.382Z,100764.36
2019-06-08T02:23:36.918Z,100779.92
2019-06-08T02:26:06.325Z,100777.66
2019-06-08T02:28:35.953Z,100778.24
2019-06-08T02:31:05.545Z,100761.16
2019-06-08T02:33:37.320Z,100785.87
2019-06-08T02:36:06.989Z,100790.03
2019-06-08T02:38:36.390Z,100779.30
2019-06-08T02:41:06.155Z,100797.77
2019-06-08T02:43:37.705Z,100811.34
2019-06-08T02:46:06.928Z,100809.55
2019-06-08T02:49:00.102Z,100818.64
2019-06-08T02:51:08.990Z,100812.54
2019-06-08T02:53:41.414Z,100816.13
2019-06-08T02:56:15.404Z,100821.57
2019-06-08T02:58:44.034Z,100815.27
2019-06-08T03:01:14.833Z,100825.55
2019-06-08T03:03:45.359Z,100843.12
2019-06-08T03:06:15.401Z,100847.72
2019-06-08T03:08:48.130Z,100854.84
2019-06-08T03:11:22.845Z,100840.04
2019-06-08T03:13:57.545Z,100852.63
2019-06-08T03:16:27.200Z,100848.13
2019-06-08T03:18:56.765Z,100877.37
2019-06-08T03:21:26.201Z,100881.87
2019-06-08T03:23:55.601Z,100871.27
2019-06-08T03:26:29.666Z,100873.86
2019-06-08T03:29:00.214Z,100879.89
2019-06-08T03:31:29.608Z,100895.59
2019-06-08T03:33:59.084Z,100897.98
2019-06-08T03:36:28.497Z,100904.53
2019-06-08T03:38:58.033Z,100914.92
2019-06-08T03:41:27.567Z,100904.33
2019-06-08T03:43:57.004Z,100909.45
2019-06-08T03:46:31.772Z,100913.47
2019-06-08T03:49:04.343Z,100921.64
2019-06-08T03:51:36.067Z,100936.21
2019-06-08T03:54:05.664Z,100923.34
2019-06-08T03:56:35.785Z,100938.00
2019-06-08T03:59:05.862Z,100934.55
2019-06-08T04:01:35.413Z,100925.79
2019-06-08T04:04:05.046Z,100934.34
2019-06-08T04:06:37.860Z,100935.23
2019-06-08T04:09:08.180Z,100955.75
2019-06-08T04:11:37.899Z,100960.32
2019-06-08T04:14:07.873Z,100962.16
2019-06-08T04:16:38.327Z,100966.05
2019-06-08T04:19:13.467Z,100970.75
2019-06-08T04:21:44.310Z,100977.38
2019-06-08T04:24:13.811Z,100964.42
2019-06-08T04:26:45.488Z,100964.20
2019-06-08T04:29:15.629Z,100983.78
2019-06-08T04:31:46.042Z,100990.88
2019-06-08T04:34:15.538Z,100989.16
2019-06-08T04:36:46.309Z,100980.41
2019-06-08T04:39:19.030Z,100990.66
2019-06-08T04:41:48.671Z,100996.59
2019-06-08T04:44:18.376Z,100983.47
2019-06-08T04:46:49.526Z,100994.98
2019-06-08T04:49:19.167Z,101011.85
2019-06-08T04:51:50.122Z,101011.00
2019-06-08T04:54:19.522Z,101034.95
2019-06-08T04:56:49.632Z,100988.59
2019-06-08T04:59:19.479Z,101031.53
2019-06-08T05:01:49.496Z,101037.80
2019-06-08T05:04:19.417Z,101017.16
2019-06-08T05:06:49.534Z,101030.59
2019-06-08T05:09:19.431Z,101012.45
2019-06-08T05:11:49.909Z,101042.91
2019-06-08T05:14:21.052Z,101046.95
2019-06-08T05:16:53.601Z,101051.95
2019-06-08T05:19:23.498Z,101020.52
2019-06-08T05:21:52.892Z,101066.02
2019-06-08T05:24:22.498Z,101043.11
2019-06-08T05:26:53.798Z,101066.95
2019-06-08T05:29:23.178Z,101067.58
2019-06-08T05:31:52.572Z,101061.69
2019-06-08T05:34:22.151Z,101068.78
2019-06-08T05:36:51.678Z,101076.33
2019-06-08T05:39:21.206Z,101068.20
2019-06-08T05:41:51.333Z,101079.33
2019-06-08T05:44:21.095Z,101082.42
2019-06-08T05:46:50.812Z,101092.27
2019-06-08T05:49:20.414Z,101089.53
2019-06-08T05:51:50.210Z,101094.49
2019-06-08T05:54:20.616Z,101093.69
2019-06-08T05:56:50.509Z,101096.27
2019-06-08T05:59:25.785Z,101097.48
2019-06-08T06:01:52.268Z,101112.02
2019-06-08T06:04:23.545Z,101103.50
2019-06-08T06:06:55.715Z,101115.21
2019-06-08T06:09:26.020Z,101110.06
2019-06-08T06:11:55.438Z,101117.98
2019-06-08T06:14:24.991Z,101132.40
2019-06-08T06:16:54.795Z,101135.70
2019-06-08T06:19:24.428Z,101129.20
2019-06-08T06:21:54.310Z,101130.95
2019-06-08T06:24:23.838Z,101137.14
2019-06-08T06:26:53.560Z,101138.36
2019-06-08T06:29:23.199Z,101133.30
2019-06-08T06:31:52.720Z,101148.06
2019-06-08T06:34:22.371Z,101150.25
2019-06-08T06:36:52.219Z,101156.72
2019-06-08T06:39:22.052Z,101150.86
2019-06-08T06:41:55.763Z,101168.91
2019-06-08T06:44:25.314Z,101172.52
2019-06-08T06:46:54.870Z,101188.36
2019-06-08T06:49:24.315Z,101185.15
2019-06-08T06:51:53.871Z,101176.00
2019-06-08T06:54:23.563Z,101188.70
2019-06-08T06:56:54.064Z,101190.99
2019-06-08T06:59:25.477Z,101206.13
2019-06-08T07:01:57.488Z,101198.05
2019-06-08T07:04:26.048Z,101202.83
2019-06-08T07:06:55.447Z,101193.99
2019-06-08T07:09:24.947Z,101194.73
2019-06-08T07:11:56.119Z,101192.83
2019-06-08T07:14:25.877Z,101204.05
2019-06-08T07:16:56.134Z,101199.15
2019-06-08T07:19:25.649Z,101223.43
2019-06-08T07:21:55.287Z,101206.70
2019-06-08T07:24:24.775Z,101212.82
2019-06-08T07:26:55.234Z,101217.72
2019-06-08T07:29:25.818Z,101220.19
2019-06-08T07:31:56.277Z,101212.09
2019-06-08T07:34:25.704Z,101222.77
2019-06-08T07:36:55.528Z,101231.08
2019-06-08T07:39:25.165Z,101229.56
2019-06-08T07:41:55.846Z,101219.59
2019-06-08T07:44:25.476Z,101240.28
2019-06-08T07:46:55.811Z,101236.52
2019-06-08T07:49:31.561Z,101250.05
2019-06-08T07:52:09.417Z,101254.94
2019-06-08T07:54:34.563Z,101265.02
2019-06-08T07:57:04.130Z,101220.41
2019-06-08T07:59:33.750Z,101243.81
2019-06-08T08:02:03.602Z,101245.74
2019-06-08T08:04:33.033Z,101248.56
2019-06-08T08:07:02.504Z,101250.75
2019-06-08T08:09:32.211Z,101263.64
2019-06-08T08:12:05.024Z,101271.92
2019-06-08T08:16:00.708Z,101253.98
2019-06-08T08:18:30.439Z,101274.20
2019-06-08T08:21:10.512Z,101260.87
2019-06-08T08:23:32.438Z,101260.36
2019-06-08T08:26:03.610Z,101285.33
2019-06-08T08:28:33.595Z,101260.34
2019-06-08T08:31:07.733Z,101282.73
2019-06-08T08:33:34.569Z,101284.92
2019-06-08T08:36:04.149Z,101281.66
2019-06-08T08:38:33.915Z,101281.52
2019-06-08T08:41:07.410Z,101296.80
2019-06-08T08:43:34.545Z,101299.84
2019-06-08T08:46:04.227Z,101299.84
2019-06-08T08:48:33.626Z,101299.98
2019-06-08T08:51:08.369Z,101277.49
2019-06-08T08:53:34.630Z,101263.96
2019-06-08T08:56:04.135Z,101301.06
2019-06-08T08:58:35.186Z,101300.67
2019-06-08T09:01:08.230Z,101328.74
2019-06-08T09:03:39.579Z,101321.49
2019-06-08T09:06:09.178Z,101296.55
2019-06-08T09:08:44.475Z,101327.85
2019-06-08T09:11:14.005Z,101335.70
2019-06-08T09:13:43.593Z,101344.28
2019-06-08T09:16:17.716Z,101338.86
2019-06-08T09:18:47.965Z,101342.76
2019-06-08T09:21:18.677Z,101321.48
2019-06-08T09:23:48.704Z,101338.79
2019-06-08T09:26:18.482Z,101338.83
2019-06-08T09:28:51.690Z,101358.98
2019-06-08T09:31:24.570Z,101369.61
2019-06-08T09:34:04.469Z,101368.84
2019-06-08T09:36:28.498Z,101380.31
2019-06-08T09:39:00.946Z,101382.92
2019-06-08T09:41:31.240Z,101391.09
2019-06-08T09:44:05.575Z,101377.81
2019-06-08T09:46:34.608Z,101388.48
2019-06-08T09:49:08.607Z,101398.70
2019-06-08T09:51:37.921Z,101395.75
2019-06-08T09:54:12.439Z,101414.78
2019-06-08T09:56:40.685Z,101397.84
2019-06-08T09:59:11.752Z,101399.09
2019-06-08T10:01:41.666Z,101402.08
2019-06-08T10:04:11.234Z,101400.95
2019-06-08T10:06:41.112Z,101419.31
2019-06-08T10:09:10.860Z,101420.72
2019-06-08T10:11:42.225Z,101410.59
2019-06-08T10:14:12.666Z,101430.16
2019-06-08T10:16:42.502Z,101411.84
2019-06-08T10:19:12.105Z,101435.61
2019-06-08T10:21:44.663Z,101438.13
2019-06-08T10:24:14.255Z,101424.83
2019-06-08T10:26:43.873Z,101401.55
2019-06-08T10:29:13.289Z,101426.97
2019-06-08T10:31:43.930Z,101445.17
2019-06-08T10:34:15.093Z,101459.08
2019-06-08T10:36:44.922Z,101448.57
2019-06-08T10:39:16.087Z,101457.62
2019-06-08T10:41:51.300Z,101457.75
2019-06-08T10:44:18.566Z,101455.52
2019-06-08T10:46:48.362Z,101452.81
2019-06-08T10:49:18.619Z,101454.45
2019-06-08T10:51:49.657Z,101461.86
2019-06-08T10:54:19.059Z,101458.42
2019-06-08T10:56:48.777Z,101471.92
2019-06-08T10:59:18.656Z,101482.64
2019-06-08T11:01:48.036Z,101482.34
2019-06-08T11:04:18.616Z,101488.09
2019-06-08T11:06:49.169Z,101482.64
2019-06-08T11:09:19.031Z,101513.05
2019-06-08T11:11:48.572Z,101493.25
2019-06-08T11:14:19.539Z,101495.58
2019-06-08T11:16:49.207Z,101513.03
2019-06-08T11:19:18.761Z,101499.66
2019-06-08T11:21:48.408Z,101503.45
2019-06-08T11:24:24.822Z,101505.25
2019-06-08T11:26:48.971Z,101522.23
2019-06-08T11:29:18.946Z,101495.95
2019-06-08T11:31:50.932Z,101517.45
2019-06-08T11:34:21.820Z,101519.13
2019-06-08T11:36:51.572Z,101526.84
2019-06-08T11:39:22.476Z,101538.44
2019-06-08T11:41:52.027Z,101543.29
2019-06-08T11:44:21.435Z,101539.77
2019-06-08T11:46:50.927Z,101543.15
2019-06-08T11:49:20.416Z,101559.23
2019-06-08T11:51:50.009Z,101557.85
2019-06-08T11:54:33.003Z,101536.09
2019-06-08T11:56:53.775Z,101559.42
2019-06-08T11:59:24.190Z,101551.09
2019-06-08T12:01:58.480Z,101556.86
2019-06-08T12:04:28.209Z,101565.91
2019-06-08T12:06:58.588Z,101569.55
2019-06-08T12:09:28.652Z,101572.23
2019-06-08T12:11:58.205Z,101548.20
2019-06-08T12:14:28.057Z,101562.09
2019-06-08T12:16:58.125Z,101584.25
2019-06-08T12:19:31.499Z,101572.60
2019-06-08T12:22:00.195Z,101559.30
2019-06-08T12:24:41.455Z,101545.84
2019-06-08T12:27:10.191Z,101562.02
2019-06-08T12:29:31.918Z,101571.06
2019-06-08T12:32:01.305Z,101560.31
2019-06-08T12:34:30.704Z,101570.13
2019-06-08T12:37:00.157Z,101542.30
2019-06-08T12:39:29.531Z,101569.40
2019-06-08T12:41:58.935Z,101567.66
2019-06-08T12:44:29.141Z,101562.78
2019-06-08T12:46:58.860Z,101558.58
2019-06-08T12:49:28.649Z,101548.84
2019-06-08T12:51:58.447Z,101553.75
2019-06-08T12:54:28.410Z,101560.48
2019-06-08T12:57:00.598Z,101560.38
2019-06-08T12:59:29.046Z,101546.95
2019-06-08T13:01:58.693Z,101560.36
2019-06-08T13:04:28.702Z,101557.66
2019-06-08T13:07:00.870Z,101555.13
2019-06-08T13:09:30.373Z,101557.23
2019-06-08T13:11:59.832Z,101571.81
2019-06-08T13:14:29.235Z,101563.52
2019-06-08T13:17:01.153Z,101583.26
2019-06-08T13:19:30.345Z,101563.06
2019-06-08T13:22:02.872Z,101573.34
2019-06-08T13:24:32.276Z,101575.31
2019-06-08T13:27:03.428Z,101573.26
2019-06-08T13:29:32.847Z,101578.38
2019-06-08T13:32:02.343Z,101582.90
2019-06-08T13:34:33.446Z,101580.45
2019-06-08T13:37:02.803Z,101591.05
2019-06-08T13:39:32.454Z,101588.66
2019-06-08T13:42:02.011Z,101590.81
2019-06-08T13:44:31.416Z,101597.69
2019-06-08T13:47:00.805Z,101587.80
2019-06-08T13:49:30.899Z,101591.30
2019-06-08T13:52:00.468Z,101582.91
2019-06-08T13:54:31.350Z,101584.30
2019-06-08T13:57:00.892Z,101599.34
2019-06-08T13:59:30.887Z,101629.05
2019-06-08T14:02:00.432Z,101649.53
2019-06-08T14:04:30.557Z,101650.75
2019-06-08T14:06:59.954Z,101649.84
2019-06-08T14:09:31.544Z,101660.02
2019-06-08T14:12:00.438Z,101639.16
2019-06-08T14:14:29.875Z,101627.20
2019-06-08T14:16:59.362Z,101617.57
2019-06-08T14:19:31.326Z,101620.41
2019-06-08T14:21:59.969Z,101613.82
2019-06-08T14:24:33.976Z,101614.22
2019-06-08T14:27:00.428Z,101625.48
2019-06-08T14:29:30.537Z,101633.62
2019-06-08T14:31:59.969Z,101658.05
2019-06-08T14:34:31.290Z,101710.03
2019-06-08T14:37:00.430Z,101680.09
2019-06-08T14:39:31.738Z,101679.58
2019-06-08T14:42:01.026Z,101668.75
2019-06-08T14:44:32.157Z,101668.59
2019-06-08T14:47:09.738Z,101676.52
2019-06-08T14:49:38.299Z,101677.02
2019-06-08T14:52:07.963Z,101663.95
2019-06-08T14:54:38.629Z,101656.11
2019-06-08T14:57:08.109Z,101671.46
2019-06-08T14:59:37.750Z,101666.23
2019-06-08T15:02:07.876Z,101659.11
2019-06-08T15:04:39.950Z,101658.75
2019-06-08T15:07:09.614Z,101662.41
2019-06-08T15:09:39.085Z,101675.25
2019-06-08T15:12:09.231Z,101704.06
2019-06-08T15:14:40.021Z,101739.53
2019-06-08T15:17:09.470Z,101756.87
2019-06-08T15:19:38.916Z,101794.52
2019-06-08T15:22:11.055Z,101794.80
2019-06-08T15:24:39.413Z,101791.60
2019-06-08T15:27:08.785Z,101765.20
2019-06-08T15:29:38.184Z,101765.98
2019-06-08T15:32:08.139Z,101758.42
2019-06-08T15:34:38.295Z,101768.69
2019-06-08T15:37:09.158Z,101761.22
2019-06-08T15:39:41.866Z,101753.02
2019-06-08T15:42:11.278Z,101758.11
2019-06-08T15:44:40.639Z,101743.56
2019-06-08T15:47:10.198Z,101736.64
2019-06-08T15:49:39.656Z,101736.14
2019-06-08T15:52:09.136Z,101730.06
2019-06-08T15:54:40.967Z,101723.33
2019-06-08T15:57:09.846Z,101728.07
2019-06-08T15:59:41.724Z,101728.42
2019-06-08T16:02:11.381Z,101735.48
2019-06-08T16:04:40.904Z,101751.40
2019-06-08T16:07:10.393Z,101745.84
2019-06-08T16:09:39.737Z,101753.44
2019-06-08T16:12:09.246Z,101758.09
2019-06-08T16:14:41.218Z,101783.53
2019-06-08T16:17:09.795Z,101779.97
2019-06-08T16:19:39.353Z,101788.82
2019-06-08T16:22:08.880Z,101770.30
2019-06-08T16:24:39.913Z,101768.00
2019-06-08T16:27:09.448Z,101773.75
2019-06-08T16:29:39.254Z,101765.44
2019-06-08T16:32:09.670Z,101768.92
2019-06-08T16:34:40.914Z,101775.84
2019-06-08T16:37:10.536Z,101777.88
2019-06-08T16:39:42.490Z,101778.11
2019-06-08T16:42:11.907Z,101775.28
2019-06-08T16:44:42.240Z,101773.33
2019-06-08T16:47:11.671Z,101785.09
2019-06-08T16:49:41.065Z,101779.62
2019-06-08T16:52:10.458Z,101775.08
2019-06-08T16:54:39.831Z,101772.11
2019-06-08T16:57:10.923Z,101779.28
2019-06-08T16:59:40.297Z,101782.67
2019-06-08T17:02:09.956Z,101768.52
2019-06-08T17:04:39.337Z,101776.63
2019-06-08T17:07:08.728Z,101771.44
2019-06-08T17:09:40.056Z,101772.84
2019-06-08T17:12:09.724Z,101785.92
2019-06-08T17:14:40.762Z,101785.33
2019-06-08T17:17:10.411Z,101783.44
2019-06-08T17:19:40.368Z,101789.48
2019-06-08T17:22:09.790Z,101788.45
2019-06-08T17:24:39.156Z,101793.06
2019-06-08T17:27:08.546Z,101792.97
2019-06-08T17:29:39.040Z,101795.55
2019-06-08T17:32:09.838Z,101793.63
2019-06-08T17:34:40.264Z,101792.66
2019-06-08T17:37:09.862Z,101807.16
2019-06-08T17:39:40.129Z,101804.02
2019-06-08T17:42:09.598Z,101813.55
2019-06-08T17:44:40.296Z,101812.41
2019-06-08T17:47:09.965Z,101821.73
2019-06-08T17:49:40.691Z,101817.92
2019-06-08T17:52:11.094Z,101832.06
2019-06-08T17:54:41.245Z,101837.64
2019-06-08T17:57:10.648Z,101835.81
2019-06-08T17:59:40.020Z,101826.63
2019-06-08T18:02:13.797Z,101837.77
2019-06-08T18:04:41.397Z,101828.53
2019-06-08T18:07:11.732Z,101849.92
2019-06-08T18:09:42.289Z,101846.14
2019-06-08T18:12:12.189Z,101842.75
2019-06-08T18:14:43.578Z,101847.37
2019-06-08T18:17:13.171Z,101845.84
2019-06-08T18:19:45.058Z,101851.55
2019-06-08T18:22:15.725Z,101845.38
2019-06-08T18:24:47.712Z,101840.73
2019-06-08T18:27:18.120Z,101845.01
2019-06-08T18:29:48.702Z,101849.62
2019-06-08T18:32:19.609Z,101842.74
2019-06-08T18:34:49.063Z,101846.02
2019-06-08T18:37:18.482Z,101850.29
2019-06-08T18:39:49.634Z,101849.70
2019-06-08T18:42:21.144Z,101851.28
2019-06-08T18:44:50.578Z,101857.67
2019-06-08T18:47:20.042Z,101859.45
2019-06-08T18:49:49.434Z,101863.22
2019-06-08T18:52:18.816Z,101867.28
2019-06-08T18:54:49.551Z,101871.47
2019-06-08T18:57:19.262Z,101866.66
2019-06-08T18:59:52.597Z,101873.08
2019-06-08T19:02:19.739Z,101864.17
2019-06-08T19:04:49.702Z,101872.06
2019-06-08T19:07:19.245Z,101871.72
2019-06-08T19:09:49.764Z,101871.38
2019-06-08T19:12:19.826Z,101879.05
2019-06-08T19:14:52.188Z,101883.14
2019-06-08T19:17:21.380Z,101886.63
2019-06-08T19:19:52.257Z,101892.83
2019-06-08T19:22:22.138Z,101890.50
2019-06-08T19:24:51.561Z,101895.91
2019-06-08T19:27:21.099Z,101901.27
2019-06-08T19:29:51.681Z,101903.23
2019-06-08T19:32:21.602Z,101903.10
2019-06-08T19:34:54.398Z,101906.52
2019-06-08T19:37:22.581Z,101904.43
2019-06-08T19:39:51.952Z,101917.84
2019-06-08T19:42:35.558Z,101913.16
2019-06-08T19:45:01.230Z,101919.89
2019-06-08T19:47:23.637Z,101930.48
2019-06-08T19:49:54.869Z,101932.66
2019-06-08T19:52:24.299Z,101939.52
2019-06-08T19:54:54.155Z,101931.79
2019-06-08T19:57:23.539Z,101933.27
2019-06-08T19:59:53.045Z,101932.09
2019-06-08T20:02:22.435Z,101938.33
2019-06-08T20:04:53.103Z,101939.79
2019-06-08T20:07:23.910Z,101942.39
2019-06-08T20:09:53.915Z,101948.66
2019-06-08T20:12:23.445Z,101954.38
2019-06-08T20:14:53.784Z,101954.02
2019-06-08T20:17:23.399Z,101958.47
2019-06-08T20:19:53.406Z,101963.85
2019-06-08T20:22:22.972Z,101962.19
2019-06-08T20:24:55.765Z,101955.59
2019-06-08T20:27:27.626Z,101963.66
2019-06-08T20:29:58.151Z,101967.64
2019-06-08T20:32:28.200Z,101966.30
2019-06-08T20:34:58.877Z,101972.46
2019-06-08T20:37:28.500Z,101972.05
2019-06-08T20:40:09.794Z,101976.50
2019-06-08T20:42:29.147Z,101976.16
2019-06-08T20:44:58.554Z,101977.94
2019-06-08T20:47:28.040Z,101971.45
2019-06-08T20:49:58.248Z,101971.96
2019-06-08T20:52:28.221Z,101979.51
2019-06-08T20:54:58.316Z,101985.78
2019-06-08T20:57:28.749Z,101988.88
2019-06-08T20:59:58.203Z,101986.71
2019-06-08T21:02:28.432Z,101987.64
2019-06-08T21:04:59.509Z,101993.39
2019-06-08T21:07:29.032Z,101989.02
2019-06-08T21:09:58.435Z,101993.41
2019-06-08T21:12:28.431Z,101995.17
2019-06-08T21:14:57.932Z,101990.27
2019-06-08T21:17:27.669Z,101991.61
2019-06-08T21:19:57.893Z,101997.23
2019-06-08T21:22:27.910Z,101995.00
2019-06-08T21:24:59.967Z,102000.81
2019-06-08T21:27:28.448Z,101996.91
2019-06-08T21:30:06.838Z,101998.28
2019-06-08T21:32:31.453Z,102003.59
2019-06-08T21:35:00.830Z,102002.38
2019-06-08T21:37:31.312Z,101998.98
2019-06-08T21:40:03.797Z,101999.93
2019-06-08T21:42:32.984Z,101998.66
2019-06-08T21:45:06.034Z,101998.30
2019-06-08T21:47:33.764Z,101996.13
2019-06-08T21:50:04.493Z,101997.09
2019-06-08T21:52:34.181Z,101996.77
2019-06-08T21:55:03.775Z,101999.45
2019-06-08T21:57:33.304Z,102000.39
2019-06-08T22:00:21.861Z,102003.09
2019-06-08T22:02:37.574Z,102000.96
2019-06-08T22:05:08.201Z,102001.53
2019-06-08T22:07:37.882Z,102003.42
2019-06-08T22:10:07.760Z,102009.69
2019-06-08T22:12:40.241Z,102004.50
2019-06-08T22:15:08.523Z,102008.52
2019-06-08T22:17:38.438Z,102008.62
2019-06-08T22:20:08.416Z,102016.15
2019-06-08T22:22:38.786Z,102016.24
2019-06-08T22:25:08.445Z,102014.11
2019-06-08T22:27:38.312Z,102017.30
2019-06-08T22:30:11.646Z,102024.91
2019-06-08T22:32:39.207Z,102025.38
2019-06-08T22:35:09.716Z,102028.06
2019-06-08T22:37:39.169Z,102034.70
2019-06-08T22:40:08.911Z,102035.17
2019-06-08T22:42:38.590Z,102033.49
2019-06-08T22:45:08.538Z,102038.81
2019-06-08T22:47:38.718Z,102033.57
2019-06-08T22:50:08.792Z,102040.18
2019-06-08T22:52:38.355Z,102037.20
2019-06-08T22:55:10.902Z,102039.02
2019-06-08T22:57:39.242Z,102048.80
2019-06-08T23:00:16.547Z,102047.14
2019-06-08T23:02:40.113Z,102047.22
2019-06-08T23:05:09.658Z,102054.34
2019-06-08T23:07:39.074Z,102046.44
2019-06-08T23:10:09.252Z,102050.84
2019-06-08T23:12:38.659Z,102048.58
2019-06-08T23:15:08.484Z,102047.14
2019-06-08T23:17:38.784Z,102047.93
2019-06-08T23:20:09.359Z,102056.64
2019-06-08T23:22:38.864Z,102050.78
2019-06-08T23:25:09.605Z,102053.83
2019-06-08T23:27:40.104Z,102050.66
2019-06-08T23:30:10.990Z,102051.97
2019-06-08T23:32:40.369Z,102050.61
2019-06-08T23:35:09.991Z,102051.00
2019-06-08T23:37:39.554Z,102048.73
2019-06-08T23:40:09.467Z,102054.88
2019-06-08T23:42:38.880Z,102054.38
2019-06-08T23:45:10.635Z,102053.42
2019-06-08T23:47:39.746Z,102058.23
2019-06-08T23:50:11.512Z,102053.33
2019-06-08T23:52:40.633Z,102059.48
2019-06-08T23:55:12.012Z,102059.89
2019-06-08T23:57:41.616Z,102061.66
